Time;durP1;ratioP1;P1;durP2;ratioP2;P2;SDS_P1;SDS_P2;PMS_P1;PMS_P2;Temp;Humidity;BMP_temperature;BMP_pressure;BME280_temperature;BME280_humidity;BME280_pressure;Samples;Min_cycle;Max_cycle;Signal;HPM_P1;HPM_P2
2021/10/06 00:01:25;;;;;;;4.85;1.90;;;;;;;16.21;37.30;102208.31;1652392;86;21169;-72
2021/10/06 00:03:52;;;;;;;6.08;2.67;;;;;;;16.02;37.52;102206.91;1648475;85;21080;-70
2021/10/06 00:06:19;;;;;;;4.37;2.00;;;;;;;16.43;36.92;102209.81;1651686;85;21058;-70
2021/10/06 00:08:46;;;;;;;4.42;2.25;;;;;;;15.88;37.51;102206.81;1601806;87;21083;-72
2021/10/06 00:11:13;;;;;;;3.37;2.00;;;;;;;15.70;37.90;102217.04;1675319;85;21546;-71
2021/10/06 00:13:39;;;;;;;11.28;3.00;;;;;;;16.03;37.27;102237.48;1672484;85;21090;-72
2021/10/06 00:16:09;;;;;;;4.78;1.98;;;;;;;15.65;37.72;102221.15;1677236;85;22607;-70
2021/10/06 00:18:36;;;;;;;7.50;2.45;;;;;;;15.63;37.77;102211.28;1674537;85;20914;-71
2021/10/06 00:21:03;;;;;;;5.40;2.30;;;;;;;15.80;37.42;102217.67;1672914;85;21062;-72
2021/10/06 00:23:31;;;;;;;4.75;2.25;;;;;;;15.54;37.80;102224.95;1676460;85;20996;-72
2021/10/06 00:25:57;;;;;;;5.85;2.77;;;;;;;15.63;37.57;102215.22;1675963;85;21567;-70
2021/10/06 00:28:25;;;;;;;5.62;2.35;;;;;;;16.00;36.87;102221.22;1674791;85;21539;-70
2021/10/06 00:30:52;;;;;;;4.20;2.17;;;;;;;15.80;36.95;102222.94;1674502;85;21502;-72
2021/10/06 00:33:18;;;;;;;4.80;2.12;;;;;;;16.03;36.74;102216.44;1675741;85;21176;-71
2021/10/06 00:35:45;;;;;;;5.17;2.40;;;;;;;16.04;36.67;102221.20;1674821;85;20973;-71
2021/10/06 00:38:11;;;;;;;5.83;2.20;;;;;;;16.02;36.61;102224.48;1675166;85;21130;-70
2021/10/06 00:40:38;;;;;;;6.50;2.15;;;;;;;15.91;36.72;102223.06;1674894;85;21459;-70
2021/10/06 00:43:04;;;;;;;5.25;2.00;;;;;;;15.45;37.39;102233.81;1671749;85;20996;-71
2021/10/06 00:45:31;;;;;;;3.75;1.87;;;;;;;15.63;37.27;102227.87;1671923;85;21166;-71
2021/10/06 00:47:57;;;;;;;3.85;1.80;;;;;;;15.28;37.57;102231.71;1674370;85;21140;-71
2021/10/06 00:50:24;;;;;;;5.75;2.02;;;;;;;15.42;37.65;102231.05;1674116;85;21036;-71
2021/10/06 00:52:52;;;;;;;3.85;1.92;;;;;;;15.44;37.52;102234.31;1673516;85;21021;-71
2021/10/06 00:55:18;;;;;;;4.12;1.70;;;;;;;15.22;37.60;102233.17;1675383;85;21016;-70
2021/10/06 00:57:44;;;;;;;5.17;2.02;;;;;;;15.40;37.42;102233.50;1671074;85;21138;-71
2021/10/06 01:00:12;;;;;;;3.92;2.20;;;;;;;15.07;37.84;102242.70;1669709;85;21574;-71
2021/10/06 01:02:39;;;;;;;4.62;2.22;;;;;;;14.91;38.24;102234.83;1674051;85;21110;-71
2021/10/06 01:05:07;;;;;;;5.95;1.80;;;;;;;15.18;37.81;102233.18;1642538;86;21568;-71
2021/10/06 01:07:34;;;;;;;4.90;2.35;;;;;;;14.88;38.17;102239.08;1644087;86;21533;-72
2021/10/06 01:10:05;;;;;;;4.35;1.90;;;;;;;14.71;38.06;102239.56;1650747;86;21324;-73
2021/10/06 01:12:33;;;;;;;5.00;2.05;;;;;;;14.83;38.18;102244.83;1643680;86;21542;-69
2021/10/06 01:15:00;;;;;;;4.20;1.90;;;;;;;15.01;37.90;102247.31;1622391;85;21542;-72
2021/10/06 01:17:26;;;;;;;3.92;2.10;;;;;;;14.84;38.01;102244.66;1624255;86;21061;-73
2021/10/06 01:19:53;;;;;;;4.00;1.90;;;;;;;14.65;38.35;102239.70;1597386;89;21060;-72
2021/10/06 01:22:20;;;;;;;4.67;2.37;;;;;;;14.58;38.44;102241.33;1656906;86;22106;-71
2021/10/06 01:24:46;;;;;;;5.00;2.37;;;;;;;14.98;38.04;102245.02;1656558;86;21149;-72
2021/10/06 01:27:13;;;;;;;4.10;2.15;;;;;;;15.13;37.70;102247.81;1655096;86;21067;-71
2021/10/06 01:29:40;;;;;;;7.92;2.10;;;;;;;15.07;37.65;102250.09;1653161;86;21095;-72
2021/10/06 01:32:14;;;;;;;4.17;2.20;;;;;;;15.13;37.55;102246.50;1622274;88;21099;-71
2021/10/06 01:34:41;;;;;;;6.92;3.12;;;;;;;15.08;37.62;102249.63;1625953;87;21105;-71
2021/10/06 01:37:08;;;;;;;6.17;2.35;;;;;;;15.05;37.82;102252.08;1656844;86;21016;-71
2021/10/06 01:39:34;;;;;;;6.22;2.47;;;;;;;14.96;37.90;102252.22;1622015;87;21006;-72
2021/10/06 01:42:01;;;;;;;5.83;2.62;;;;;;;14.64;38.19;102251.20;1622742;88;21151;-72
2021/10/06 01:44:28;;;;;;;5.95;2.58;;;;;;;14.80;38.20;102249.90;1657096;86;21118;-70
2021/10/06 01:46:55;;;;;;;6.65;2.40;;;;;;;14.79;38.18;102248.77;1657038;86;22574;-70
2021/10/06 01:49:21;;;;;;;4.92;2.27;;;;;;;14.73;38.28;102250.22;1651943;86;21020;-71
2021/10/06 01:51:50;;;;;;;4.25;2.10;;;;;;;14.83;38.15;102258.77;1650535;86;21008;-71
2021/10/06 01:54:16;;;;;;;6.37;2.70;;;;;;;14.72;38.35;102253.02;1621724;88;21120;-71
2021/10/06 01:56:43;;;;;;;4.65;2.60;;;;;;;14.66;38.51;102249.24;1652772;86;21529;-70
2021/10/06 01:59:09;;;;;;;3.90;2.30;;;;;;;14.76;38.40;102253.84;1621983;88;21139;-71
2021/10/06 02:01:36;;;;;;;7.22;2.75;;;;;;;14.82;38.28;102262.39;1617908;87;21614;-71
2021/10/06 02:04:03;;;;;;;4.25;2.45;;;;;;;14.25;38.84;102266.14;1659569;84;21111;-71
2021/10/06 02:06:29;;;;;;;5.28;2.30;;;;;;;14.48;38.77;102265.07;1651143;85;21147;-70
2021/10/06 02:08:58;;;;;;;4.97;2.60;;;;;;;14.43;38.75;102258.64;1651911;85;21067;-70
2021/10/06 02:11:24;;;;;;;6.55;2.27;;;;;;;14.42;38.76;102257.00;1650584;85;21156;-71
2021/10/06 02:13:50;;;;;;;6.42;2.35;;;;;;;14.39;38.77;102257.31;1651909;85;22442;-70
2021/10/06 02:16:18;;;;;;;4.30;2.22;;;;;;;14.43;38.66;102261.27;1649612;86;21008;-71
2021/10/06 02:18:45;;;;;;;5.62;1.95;;;;;;;14.45;38.77;102256.69;1647433;86;21620;-69
2021/10/06 02:21:12;;;;;;;4.53;1.95;;;;;;;14.54;38.58;102259.69;1665923;85;21023;-72
2021/10/06 02:23:39;;;;;;;4.12;2.27;;;;;;;14.50;38.62;102268.86;1672990;85;21178;-70
2021/10/06 02:26:05;;;;;;;4.53;2.40;;;;;;;14.34;38.85;102268.30;1682277;85;21029;-70
2021/10/06 02:28:32;;;;;;;4.85;2.72;;;;;;;14.19;39.08;102279.88;1682339;85;21794;-71
2021/10/06 02:30:59;;;;;;;5.05;2.62;;;;;;;14.16;39.18;102278.87;1679576;85;20984;-70
2021/10/06 02:33:25;;;;;;;4.75;2.52;;;;;;;14.27;38.98;102280.39;1678615;85;21016;-71
2021/10/06 02:35:52;;;;;;;4.47;2.58;;;;;;;14.26;38.94;102284.83;1685962;84;22474;-70
2021/10/06 02:38:18;;;;;;;4.83;2.55;;;;;;;14.28;38.97;102286.81;1656052;86;20957;-71
2021/10/06 02:40:44;;;;;;;5.25;2.70;;;;;;;14.17;39.14;102291.02;1655862;85;20927;-71
2021/10/06 02:43:11;;;;;;;6.17;2.42;;;;;;;14.27;39.02;102298.76;1654581;86;21418;-70
2021/10/06 02:45:37;;;;;;;5.62;2.72;;;;;;;13.94;39.35;102299.07;1656112;86;21438;-71
2021/10/06 02:48:04;;;;;;;6.25;2.60;;;;;;;13.81;39.59;102303.42;1655544;86;21184;-71
2021/10/06 02:50:31;;;;;;;6.78;2.70;;;;;;;13.78;39.60;102304.55;1690009;84;21112;-71
2021/10/06 02:55:44;;;;;;;5.05;2.80;;;;;;;13.74;39.66;102308.45;1689861;82;22340;-70
2021/10/06 02:58:10;;;;;;;4.55;2.65;;;;;;;13.68;39.83;102320.88;1691140;83;21078;-69
2021/10/06 03:00:37;;;;;;;4.17;2.85;;;;;;;13.55;40.10;102318.64;1696828;78;21791;-71
2021/10/06 03:03:04;;;;;;;4.55;2.50;;;;;;;13.60;40.03;102314.27;1694945;83;21129;-72
2021/10/06 03:05:31;;;;;;;4.50;2.75;;;;;;;13.73;39.76;102317.30;1694727;82;21086;-71
2021/10/06 03:07:58;;;;;;;4.78;2.30;;;;;;;13.76;39.56;102318.31;1697921;82;21045;-70
2021/10/06 03:10:24;;;;;;;3.83;2.25;;;;;;;13.56;39.86;102316.84;1694913;82;21080;-70
2021/10/06 03:12:51;;;;;;;4.67;2.52;;;;;;;13.55;39.98;102319.13;1717367;81;21142;-70
2021/10/06 03:15:17;;;;;;;5.12;2.55;;;;;;;13.44;40.19;102331.16;1695162;82;20993;-70
2021/10/06 03:17:44;;;;;;;5.67;2.50;;;;;;;13.52;39.98;102327.28;1696235;82;21010;-69
2021/10/06 03:20:12;;;;;;;4.17;2.50;;;;;;;13.56;39.81;102332.55;1696599;83;21117;-69
2021/10/06 03:22:38;;;;;;;5.78;2.77;;;;;;;13.59;39.78;102333.08;1694027;83;21062;-74
2021/10/06 03:25:06;;;;;;;4.42;2.65;;;;;;;13.29;40.18;102330.86;1696372;83;21113;-69
2021/10/06 03:27:33;;;;;;;4.17;2.22;;;;;;;13.25;40.29;102332.95;1696360;82;20959;-72
2021/10/06 03:29:59;;;;;;;4.95;3.00;;;;;;;13.24;40.28;102330.49;1696594;82;21040;-69
2021/10/06 03:32:26;;;;;;;6.22;3.50;;;;;;;13.10;40.38;102343.08;1699525;82;20969;-69
2021/10/06 03:34:52;;;;;;;8.38;5.12;;;;;;;13.23;40.23;102334.91;1710393;81;21060;-70
2021/10/06 03:37:20;;;;;;;12.15;6.30;;;;;;;13.18;40.25;102338.41;1695265;83;22209;-68
2021/10/06 03:39:47;;;;;;;10.78;6.22;;;;;;;13.20;40.19;102341.72;1711810;82;21011;-68
2021/10/06 03:42:13;;;;;;;10.18;5.25;;;;;;;13.38;39.96;102346.52;1695226;83;21087;-67
2021/10/06 03:44:40;;;;;;;11.05;6.70;;;;;;;13.52;39.79;102343.83;1695093;83;21023;-69
2021/10/06 03:47:07;;;;;;;10.08;5.85;;;;;;;13.71;39.50;102338.89;1694662;83;21083;-68
2021/10/06 03:49:34;;;;;;;13.93;9.08;;;;;;;13.82;39.46;102347.83;1696705;83;21195;-73
2021/10/06 03:52:00;;;;;;;8.65;5.92;;;;;;;13.95;39.22;102344.00;1694825;82;20923;-68
2021/10/06 03:54:27;;;;;;;7.30;5.50;;;;;;;14.22;38.98;102341.20;1696944;83;20955;-68
2021/10/06 03:56:54;;;;;;;11.10;6.87;;;;;;;14.56;38.43;102341.73;1696733;82;21035;-70
2021/10/06 03:59:20;;;;;;;8.00;4.17;;;;;;;14.99;37.84;102335.94;1694795;83;21111;-67
2021/10/06 04:01:47;;;;;;;6.53;3.47;;;;;;;15.41;37.17;102339.76;1695065;82;21113;-67
2021/10/06 04:04:14;;;;;;;7.25;4.58;;;;;;;15.77;36.61;102335.02;1695186;84;21111;-71
2021/10/06 04:06:40;;;;;;;8.20;5.08;;;;;;;16.03;36.05;102333.50;1695411;83;21571;-70
2021/10/06 04:09:06;;;;;;;9.85;4.72;;;;;;;16.21;35.76;102338.56;1694855;83;21019;-69
2021/10/06 04:11:33;;;;;;;5.25;3.42;;;;;;;16.24;35.73;102333.44;1694271;83;20935;-66
2021/10/06 04:14:00;;;;;;;7.08;3.50;;;;;;;16.56;35.28;102343.03;1707057;81;21786;-65
2021/10/06 04:16:26;;;;;;;5.42;2.70;;;;;;;16.84;34.72;102336.00;1700066;82;21014;-71
2021/10/06 04:18:53;;;;;;;5.03;2.37;;;;;;;16.96;34.23;102328.02;1696436;82;21586;-71
2021/10/06 04:21:20;;;;;;;4.45;2.67;;;;;;;17.16;33.65;102337.12;1696289;83;20973;-73
2021/10/06 04:23:47;;;;;;;5.10;2.70;;;;;;;17.72;33.11;102336.31;1714365;81;21298;-71
2021/10/06 04:26:13;;;;;;;4.10;2.70;;;;;;;18.08;32.51;102336.98;1695153;82;21106;-69
2021/10/06 04:28:40;;;;;;;6.07;2.57;;;;;;;18.31;31.91;102337.39;1698245;82;21352;-72
2021/10/06 04:31:06;;;;;;;6.47;2.70;;;;;;;18.48;31.44;102342.77;1696573;83;21094;-72
2021/10/06 04:33:34;;;;;;;5.97;2.70;;;;;;;18.52;31.25;102341.39;1696658;83;21042;-69
2021/10/06 04:36:00;;;;;;;6.43;3.20;;;;;;;18.13;31.31;102345.67;1695687;83;21351;-71
2021/10/06 04:38:27;;;;;;;6.97;3.40;;;;;;;17.86;31.55;102355.84;1695725;83;21229;-69
2021/10/06 04:40:53;;;;;;;3.63;2.10;;;;;;;17.64;31.92;102353.53;1695887;83;21755;-70
2021/10/06 04:43:20;;;;;;;5.37;2.70;;;;;;;17.18;32.25;102348.30;1696056;83;21153;-69
2021/10/06 04:45:47;;;;;;;5.20;2.60;;;;;;;17.06;32.65;102351.52;1696964;83;21174;-68
2021/10/06 04:48:13;;;;;;;6.03;2.47;;;;;;;16.86;32.91;102361.66;1695651;83;21335;-67
2021/10/06 04:50:40;;;;;;;5.60;2.83;;;;;;;16.75;32.73;102362.89;1696784;83;21372;-66
2021/10/06 04:53:07;;;;;;;5.83;2.67;;;;;;;16.44;33.13;102361.48;1695201;83;21882;-67
2021/10/06 04:55:33;;;;;;;7.08;2.40;;;;;;;16.50;32.98;102366.08;1696072;83;21058;-72
2021/10/06 04:58:00;;;;;;;5.15;2.45;;;;;;;16.40;33.24;102357.09;1695194;82;21189;-74
2021/10/06 05:00:27;;;;;;;5.92;2.52;;;;;;;16.43;33.29;102362.48;1695130;83;21003;-70
2021/10/06 05:02:53;;;;;;;7.08;2.50;;;;;;;16.48;33.23;102359.68;1697275;82;21199;-71
2021/10/06 05:05:20;;;;;;;4.55;2.37;;;;;;;16.36;33.34;102364.15;1696140;83;21186;-72
2021/10/06 05:07:47;;;;;;;10.18;3.75;;;;;;;16.30;33.21;102369.61;1694712;83;21588;-71
2021/10/06 05:10:14;;;;;;;10.70;4.20;;;;;;;16.26;33.40;102372.25;1696768;83;21169;-72
2021/10/06 05:12:40;;;;;;;6.55;2.98;;;;;;;16.05;33.49;102367.52;1695216;83;21089;-71
2021/10/06 05:15:08;;;;;;;7.10;3.10;;;;;;;15.92;33.58;102375.94;1696386;83;22218;-71
2021/10/06 05:17:34;;;;;;;6.45;3.08;;;;;;;15.98;33.60;102373.12;1694643;83;21465;-79
2021/10/06 05:20:01;;;;;;;5.75;2.65;;;;;;;16.00;33.71;102364.58;1694674;82;21699;-73
2021/10/06 05:22:27;;;;;;;11.30;5.35;;;;;;;15.99;33.71;102369.52;1696695;83;20990;-72
2021/10/06 05:24:54;;;;;;;8.35;4.10;;;;;;;15.80;33.83;102377.27;1695338;83;21501;-72
2021/10/06 05:27:21;;;;;;;6.95;3.20;;;;;;;15.98;33.74;102374.44;1698620;83;21158;-74
2021/10/06 05:29:47;;;;;;;7.20;3.00;;;;;;;16.16;33.48;102379.01;1695012;82;21048;-76
2021/10/06 05:32:13;;;;;;;6.30;3.00;;;;;;;16.13;33.29;102370.62;1695210;83;21310;-71
2021/10/06 05:34:40;;;;;;;9.38;2.72;;;;;;;16.01;33.33;102370.98;1696689;82;21487;-70
2021/10/06 05:37:06;;;;;;;6.35;2.67;;;;;;;15.80;33.62;102370.70;1696751;82;21070;-70
2021/10/06 05:39:33;;;;;;;8.33;2.65;;;;;;;15.96;33.51;102367.22;1695172;83;21158;-71
2021/10/06 05:41:59;;;;;;;7.65;2.47;;;;;;;15.89;33.71;102342.56;1695220;83;21057;-72
2021/10/06 05:44:26;;;;;;;4.62;2.35;;;;;;;15.81;33.64;102377.09;1696728;83;21113;-70
2021/10/06 05:46:52;;;;;;;4.30;2.30;;;;;;;15.75;34.06;102367.72;1697319;82;21031;-70
2021/10/06 05:49:19;;;;;;;5.03;2.40;;;;;;;15.93;33.89;102378.07;1722590;81;20933;-70
2021/10/06 05:51:46;;;;;;;6.90;2.80;;;;;;;16.44;33.16;102362.33;1720533;81;21159;-72
2021/10/06 05:54:12;;;;;;;10.33;2.83;;;;;;;16.66;32.77;102371.77;1719110;81;21906;-71
2021/10/06 05:56:39;;;;;;;8.67;3.00;;;;;;;16.89;32.19;102373.17;1720824;81;21900;-70
2021/10/06 05:59:06;;;;;;;7.53;2.80;;;;;;;17.42;31.53;102358.33;1719913;81;21205;-70
2021/10/06 06:01:33;;;;;;;6.33;2.80;;;;;;;17.46;31.36;102366.20;1720088;81;21294;-71
2021/10/06 06:04:00;;;;;;;8.03;2.70;;;;;;;17.68;30.88;102354.81;1721107;83;21274;-71
2021/10/06 06:06:27;;;;;;;6.63;2.20;;;;;;;18.13;30.67;102369.42;1721595;83;21270;-73
2021/10/06 06:08:54;;;;;;;7.50;2.60;;;;;;;18.57;30.05;102360.17;1719442;83;21392;-70
2021/10/06 06:11:22;;;;;;;8.50;2.83;;;;;;;18.96;29.65;102360.34;1718696;83;21629;-70
2021/10/06 06:13:50;;;;;;;9.37;2.40;;;;;;;19.01;29.14;102361.91;1722377;83;22199;-72
2021/10/06 06:16:16;;;;;;;9.77;2.57;;;;;;;19.27;29.09;102359.22;1721727;83;21055;-66
2021/10/06 06:18:43;;;;;;;9.80;2.47;;;;;;;19.69;28.44;102353.08;1722240;83;20962;-66
2021/10/06 06:21:09;;;;;;;6.30;2.63;;;;;;;19.84;28.17;102355.63;1722245;83;20877;-68
2021/10/06 06:23:36;;;;;;;9.00;2.63;;;;;;;20.23;27.49;102359.53;1711725;83;20990;-68
2021/10/06 06:26:03;;;;;;;7.60;2.30;;;;;;;20.48;27.34;102363.33;1709895;83;21023;-73
2021/10/06 06:28:31;;;;;;;9.43;2.20;;;;;;;20.66;27.24;102361.50;1710344;83;21074;-69
2021/10/06 06:30:57;;;;;;;7.00;2.50;;;;;;;20.79;27.20;102359.39;1716744;83;20957;-68
2021/10/06 06:33:23;;;;;;;8.70;2.77;;;;;;;21.21;26.51;102359.58;1721683;83;20977;-69
2021/10/06 06:35:50;;;;;;;10.10;2.77;;;;;;;21.39;25.88;102365.65;1712636;83;20966;-68
2021/10/06 06:38:16;;;;;;;8.60;2.00;;;;;;;21.38;25.53;102358.72;1720184;83;20930;-71
2021/10/06 06:40:43;;;;;;;10.07;2.30;;;;;;;21.37;25.16;102361.07;1711479;83;21532;-69
2021/10/06 06:43:10;;;;;;;6.40;1.87;;;;;;;21.18;24.92;102363.17;1718109;83;21168;-68
2021/10/06 06:45:37;;;;;;;6.67;2.20;;;;;;;21.14;25.25;102363.56;1719968;83;20977;-69
2021/10/06 06:48:06;;;;;;;7.40;1.97;;;;;;;20.97;25.10;102357.51;1714197;83;20977;-71
2021/10/06 06:50:33;;;;;;;10.33;2.37;;;;;;;21.02;25.04;102364.34;1713952;83;21160;-68
2021/10/06 06:52:59;;;;;;;8.87;2.27;;;;;;;21.09;24.99;102357.22;1720899;83;21128;-68
2021/10/06 06:55:27;;;;;;;5.80;2.37;;;;;;;21.35;24.78;102355.14;1709671;83;21067;-67
2021/10/06 06:57:54;;;;;;;6.77;2.23;;;;;;;21.61;24.27;102356.98;1723961;83;21039;-70
2021/10/06 07:00:21;;;;;;;5.13;1.57;;;;;;;21.44;23.85;102355.75;1713689;83;21078;-71
2021/10/06 07:02:47;;;;;;;10.27;1.87;;;;;;;21.38;23.95;102351.57;1732148;81;21504;-69
2021/10/06 07:05:14;;;;;;;11.23;2.40;;;;;;;21.55;23.48;102356.46;1726267;81;21147;-68
2021/10/06 07:07:40;;;;;;;7.60;2.27;;;;;;;21.16;23.69;102351.94;1731311;81;20963;-68
2021/10/06 07:10:09;;;;;;;8.97;1.90;;;;;;;21.12;24.05;102352.84;1721752;81;21530;-70
2021/10/06 07:12:36;;;;;;;12.00;2.30;;;;;;;21.46;23.89;102351.06;1730479;81;21986;-70
2021/10/06 07:15:03;;;;;;;14.27;3.37;;;;;;;21.68;23.49;102363.11;1720031;81;21477;-69
2021/10/06 07:17:32;;;;;;;7.93;2.67;;;;;;;21.71;23.08;102349.42;1728289;81;20978;-67
2021/10/06 07:19:58;;;;;;;11.07;1.97;;;;;;;21.46;23.38;102350.55;1733156;81;21033;-72
2021/10/06 07:22:27;;;;;;;7.73;1.97;;;;;;;21.48;23.36;102354.31;1729827;81;21537;-72
2021/10/06 07:24:55;;;;;;;7.00;2.20;;;;;;;21.57;22.95;102343.30;1729237;81;20989;-69
2021/10/06 07:27:21;;;;;;;12.07;1.90;;;;;;;21.48;22.85;102349.84;1730104;81;21102;-71
2021/10/06 07:29:48;;;;;;;4.77;1.50;;;;;;;21.30;22.82;102344.30;1726570;81;21145;-69
2021/10/06 07:32:14;;;;;;;14.37;1.43;;;;;;;21.45;22.45;102339.64;1729486;81;20933;-70
2021/10/06 07:34:41;;;;;;;11.53;1.40;;;;;;;21.41;21.96;102349.03;1729307;81;21085;-68
2021/10/06 07:37:08;;;;;;;7.67;1.47;;;;;;;21.09;21.87;102360.68;1730151;81;21002;-70
2021/10/06 07:39:35;;;;;;;8.73;1.73;;;;;;;20.98;22.29;102348.02;1733730;81;21002;-73
2021/10/06 07:42:02;;;;;;;10.30;1.83;;;;;;;21.06;22.39;102344.36;1699821;82;21894;-71
2021/10/06 07:44:28;;;;;;;10.00;2.13;;;;;;;21.13;22.20;102346.00;1694762;82;21071;-75
2021/10/06 07:46:55;;;;;;;4.80;1.30;;;;;;;21.03;22.19;102358.86;1697594;83;20970;-72
2021/10/06 07:49:21;;;;;;;8.30;1.43;;;;;;;21.34;22.11;102350.86;1701970;82;21653;-73
2021/10/06 07:51:48;;;;;;;6.93;1.10;;;;;;;21.19;22.14;102349.69;1713542;81;20929;-72
2021/10/06 07:54:14;;;;;;;5.90;1.10;;;;;;;21.42;21.62;102358.61;1697495;83;21149;-72
2021/10/06 07:56:41;;;;;;;12.67;1.50;;;;;;;21.35;21.22;102353.30;1694987;83;21014;-73
2021/10/06 07:59:08;;;;;;;7.80;1.40;;;;;;;21.41;21.43;102358.31;1696094;83;21057;-72
2021/10/06 08:01:35;;;;;;;11.57;1.37;;;;;;;21.62;20.84;102358.09;1694680;83;21419;-71
2021/10/06 08:04:01;;;;;;;7.50;1.40;;;;;;;21.36;20.83;102353.59;1701998;82;21023;-72
2021/10/06 08:06:29;;;;;;;4.70;1.00;;;;;;;21.11;21.11;102352.03;1699458;82;21149;-71
2021/10/06 08:08:55;;;;;;;5.83;1.30;;;;;;;20.92;21.41;102342.20;1698490;82;21562;-71
2021/10/06 08:11:22;;;;;;;7.00;1.07;;;;;;;21.13;21.44;102346.52;1698286;82;21149;-71
2021/10/06 08:13:48;;;;;;;5.43;0.83;;;;;;;21.21;21.33;102346.31;1694949;82;21082;-70
2021/10/06 08:16:15;;;;;;;5.47;0.70;;;;;;;21.23;21.28;102335.52;1694910;82;21000;-71
2021/10/06 08:18:41;;;;;;;10.47;3.50;;;;;;;21.36;21.23;102335.02;1696900;82;21114;-71
2021/10/06 08:21:08;;;;;;;15.90;7.03;;;;;;;21.60;20.96;102335.45;1696098;82;20948;-70
2021/10/06 08:23:34;;;;;;;13.93;5.50;;;;;;;21.58;20.80;102324.20;1695624;82;21012;-70
2021/10/06 08:26:02;;;;;;;24.40;13.57;;;;;;;21.77;20.63;102310.61;1695718;82;21546;-71
2021/10/06 08:28:29;;;;;;;9.30;4.67;;;;;;;21.79;20.68;102318.67;1692219;82;21232;-71
2021/10/06 08:30:55;;;;;;;11.83;5.07;;;;;;;21.93;20.08;102330.06;1693048;82;21125;-71
2021/10/06 08:33:22;;;;;;;7.40;1.30;;;;;;;21.83;19.65;102331.84;1692926;82;20984;-70
2021/10/06 08:35:48;;;;;;;12.57;4.97;;;;;;;21.62;19.58;102332.06;1697435;82;21604;-70
2021/10/06 08:38:15;;;;;;;6.83;0.80;;;;;;;21.56;19.89;102327.08;1695793;82;21079;-73
2021/10/06 08:40:41;;;;;;;17.77;10.70;;;;;;;21.82;19.74;102324.06;1726721;81;21043;-71
2021/10/06 08:43:09;;;;;;;13.13;4.70;;;;;;;21.84;19.90;102322.84;1725058;81;21135;-69
2021/10/06 08:45:36;;;;;;;6.13;1.37;;;;;;;21.94;19.65;102318.95;1728510;81;21002;-68
2021/10/06 08:48:06;;;;;;;7.90;1.50;;;;;;;21.77;19.66;102317.24;1728522;81;20956;-68
2021/10/06 08:50:33;;;;;;;8.30;2.57;;;;;;;21.62;19.62;102311.64;1728876;81;21612;-71
2021/10/06 08:52:59;;;;;;;5.47;1.23;;;;;;;21.52;20.16;102325.86;1736746;81;21090;-71
2021/10/06 08:55:29;;;;;;;9.57;2.90;;;;;;;21.60;20.07;102308.39;1728113;81;21154;-69
2021/10/06 08:58:02;;;;;;;7.87;1.87;;;;;;;21.52;20.23;102301.98;1729569;81;20995;-68
2021/10/06 09:00:30;;;;;;;9.90;2.03;;;;;;;21.64;19.85;102300.03;1731321;81;21034;-69
2021/10/06 09:03:07;;;;;;;7.90;4.03;;;;;;;21.58;19.50;102293.17;1700200;81;21109;-70
2021/10/06 09:05:34;;;;;;;9.67;2.87;;;;;;;21.62;19.61;102305.01;1716807;81;21047;-69
2021/10/06 09:08:04;;;;;;;7.30;1.77;;;;;;;21.62;19.62;102291.73;1716496;81;22650;-68
2021/10/06 09:10:33;;;;;;;5.03;1.00;;;;;;;21.66;19.74;102301.95;1715908;81;21000;-68
2021/10/06 09:13:03;;;;;;;2.97;0.60;;;;;;;21.74;18.97;102293.76;1716324;82;21075;-69
2021/10/06 09:15:52;;;;;;;3.40;0.90;;;;;;;21.60;19.04;102312.38;1698586;83;21506;-69
2021/10/06 09:18:23;;;;;;;6.97;0.90;;;;;;;21.66;19.58;102293.98;1693570;83;21030;-72
2021/10/06 09:20:50;;;;;;;2.45;0.85;;;;;;;21.66;19.58;102293.98;1718068;82;21118;-69
2021/10/06 09:23:21;;;;;;;3.97;0.90;;;;;;;21.86;19.37;102296.91;1712540;81;21049;-69
2021/10/06 09:26:02;;;;;;;4.03;0.93;;;;;;;21.79;19.70;102280.18;1718491;82;26659;-73
2021/10/06 09:28:36;;;;;;;5.13;1.20;;;;;;;21.90;19.54;102285.36;1715431;81;20979;-69
2021/10/06 09:31:11;;;;;;;5.67;1.40;;;;;;;22.04;19.51;102276.83;1695894;83;20992;-68
2021/10/06 09:33:51;;;;;;;4.43;0.80;;;;;;;22.26;19.41;102264.09;1716316;82;21080;-71
2021/10/06 09:36:35;;;;;;;4.67;0.83;;;;;;;22.36;18.91;102273.77;1694301;83;21000;-69
2021/10/06 09:39:09;;;;;;;4.50;0.80;;;;;;;22.34;19.33;102270.49;1708172;81;21040;-68
2021/10/06 09:41:46;;;;;;;4.30;0.83;;;;;;;22.41;19.05;102271.28;1694506;83;21067;-68
2021/10/06 09:44:16;;;;;;;4.47;2.07;;;;;;;22.41;18.73;102267.30;1718053;82;21627;-67
2021/10/06 09:47:00;;;;;;;9.70;4.00;;;;;;;22.48;18.44;102278.70;1719027;81;21176;-69
2021/10/06 09:49:34;;;;;;;7.70;2.97;;;;;;;22.70;18.60;102270.41;1696985;83;21019;-69
2021/10/06 09:52:29;;;;;;;5.57;1.43;;;;;;;22.86;18.16;102266.41;1717868;81;21013;-69
2021/10/06 09:55:07;;;;;;;4.00;1.40;;;;;;;22.86;18.16;102266.41;1716529;82;21023;-70
2021/10/06 09:57:38;;;;;;;8.77;1.80;;;;;;;22.61;17.81;102259.71;1716289;82;20965;-70
2021/10/06 10:00:13;;;;;;;7.42;1.98;;;;;;;22.32;18.08;102268.06;1717290;81;21142;-70
2021/10/06 10:02:41;;;;;;;8.50;1.40;;;;;;;22.28;18.30;102262.06;1717367;81;21045;-70
2021/10/06 10:05:08;;;;;;;8.70;1.57;;;;;;;22.43;18.57;102262.59;1673236;84;21034;-69
2021/10/06 10:07:35;;;;;;;5.03;1.07;;;;;;;22.53;18.76;102262.11;1717991;81;21003;-70
2021/10/06 10:10:04;;;;;;;5.87;0.97;;;;;;;22.73;18.92;102249.52;1665559;84;21052;-70
2021/10/06 10:12:31;;;;;;;3.73;0.80;;;;;;;23.01;18.40;102254.97;1708925;82;21132;-71
2021/10/06 10:15:03;;;;;;;2.27;1.00;;;;;;;23.04;18.48;102264.66;1713535;82;21117;-70
2021/10/06 10:17:30;;;;;;;4.50;1.10;;;;;;;23.12;17.81;102256.92;1710475;82;20999;-68
2021/10/06 10:20:05;;;;;;;5.23;1.30;;;;;;;22.98;17.92;102246.89;1670913;84;20932;-68
2021/10/06 10:22:35;;;;;;;3.80;1.00;;;;;;;22.92;17.85;102247.78;1702429;81;21061;-72
2021/10/06 10:25:27;;;;;;;4.30;1.43;;;;;;;22.81;17.91;102272.38;1704608;82;21098;-70
2021/10/06 10:28:23;;;;;;;5.73;1.00;;;;;;;22.64;18.22;102242.02;1696933;82;21143;-69
2021/10/06 10:30:59;;;;;;;6.03;1.27;;;;;;;22.52;18.52;102259.97;1724285;81;21560;-69
2021/10/06 10:33:42;;;;;;;5.27;1.00;;;;;;;22.73;18.66;102238.05;1724972;81;21060;-69
2021/10/06 10:36:40;;;;;;;4.17;0.83;;;;;;;22.88;18.63;102235.92;1725571;81;21025;-70
2021/10/06 10:39:39;;;;;;;6.03;0.97;;;;;;;22.92;18.48;102229.16;1723995;81;21151;-69
2021/10/06 10:42:06;;;;;;;3.13;0.90;;;;;;;22.83;18.29;102223.25;1716160;81;21067;-70
2021/10/06 10:44:40;;;;;;;3.50;0.80;;;;;;;22.56;18.36;102209.34;1726102;81;21069;-70
2021/10/06 10:47:08;;;;;;;4.93;1.03;;;;;;;22.37;18.46;102220.92;1717436;81;21004;-70
2021/10/06 10:49:54;;;;;;;1.93;0.67;;;;;;;22.49;18.32;102213.88;1698635;82;20997;-70
2021/10/06 10:52:48;;;;;;;5.90;1.13;;;;;;;22.45;18.40;102197.27;1709409;82;21166;-70
2021/10/06 10:55:16;;;;;;;3.23;0.90;;;;;;;22.38;18.56;102230.51;1723149;81;20990;-71
2021/10/06 10:57:43;;;;;;;5.47;1.20;;;;;;;22.28;18.84;102215.56;1724880;81;21018;-68
2021/10/06 11:00:29;;;;;;;8.10;1.40;;;;;;;22.31;18.71;102214.62;1725442;81;20971;-69
2021/10/06 11:03:01;;;;;;;6.00;2.13;;;;;;;22.40;18.62;102195.77;1715969;81;21097;-69
2021/10/06 11:05:46;;;;;;;11.03;1.40;;;;;;;22.37;18.68;102191.69;1730792;81;21128;-69
2021/10/06 11:08:30;;;;;;;7.33;1.00;;;;;;;22.63;18.60;102193.88;1731015;81;21031;-69
2021/10/06 11:11:17;;;;;;;7.47;1.30;;;;;;;22.60;18.37;102175.17;1697454;82;21673;-68
2021/10/06 11:13:48;;;;;;;4.30;1.20;;;;;;;22.59;18.35;102186.33;1704439;82;21048;-70
2021/10/06 11:16:15;;;;;;;4.95;1.17;;;;;;;22.59;18.13;102191.64;1706422;82;21604;-71
2021/10/06 11:18:52;;;;;;;3.17;1.00;;;;;;;22.80;17.91;102198.94;1706179;82;22700;-70
2021/10/06 11:21:40;;;;;;;2.60;0.73;;;;;;;22.75;17.96;102212.08;1703980;82;20897;-69
2021/10/06 11:24:26;;;;;;;3.33;1.00;;;;;;;22.18;17.96;102189.97;1721322;81;21495;-71
2021/10/06 11:26:57;;;;;;;6.47;1.07;;;;;;;;;;1710746;81;21090;-70
2021/10/06 11:29:23;;;;;;;5.67;1.00;;;;;;;21.87;18.23;102187.55;1722815;81;22169;-71
2021/10/06 11:31:50;;;;;;;2.57;0.67;;;;;;;21.95;18.11;102193.94;1690595;82;21233;-72
2021/10/06 11:34:19;;;;;;;4.17;1.10;;;;;;;21.86;17.97;102196.54;1714145;81;21010;-71